sensor_id;sensor_type;location;lat;lon;timestamp;P1;durP1;ratioP1;P2;durP2;ratioP2
42514;SDS011;28144;49.920;18.730;2023-12-20T00:00:26;7.70;;;4.20;;
42514;SDS011;28144;49.920;18.730;2023-12-20T00:03:11;7.53;;;3.95;;
42514;SDS011;28144;49.920;18.730;2023-12-20T00:05:37;7.60;;;3.43;;
42514;SDS011;28144;49.920;18.730;2023-12-20T00:08:06;7.80;;;3.40;;
42514;SDS011;28144;49.920;18.730;2023-12-20T00:10:32;8.20;;;4.27;;
42514;SDS011;28144;49.920;18.730;2023-12-20T00:12:57;7.57;;;4.00;;
42514;SDS011;28144;49.920;18.730;2023-12-20T00:15:23;11.27;;;5.47;;
42514;SDS011;28144;49.920;18.730;2023-12-20T00:17:49;11.37;;;5.87;;
42514;SDS011;28144;49.920;18.730;2023-12-20T00:20:15;16.27;;;7.03;;
42514;SDS011;28144;49.920;18.730;2023-12-20T00:22:40;13.33;;;5.33;;
42514;SDS011;28144;49.920;18.730;2023-12-20T00:25:06;13.57;;;4.63;;
42514;SDS011;28144;49.920;18.730;2023-12-20T00:27:32;18.93;;;7.13;;
42514;SDS011;28144;49.920;18.730;2023-12-20T00:29:58;8.17;;;3.80;;
42514;SDS011;28144;49.920;18.730;2023-12-20T00:32:23;8.40;;;4.30;;
42514;SDS011;28144;49.920;18.730;2023-12-20T00:34:49;8.03;;;3.90;;
42514;SDS011;28144;49.920;18.730;2023-12-20T00:37:15;9.57;;;5.13;;
42514;SDS011;28144;49.920;18.730;2023-12-20T00:39:41;8.95;;;3.85;;
42514;SDS011;28144;49.920;18.730;2023-12-20T00:42:07;32.37;;;16.27;;
42514;SDS011;28144;49.920;18.730;2023-12-20T00:44:33;6.13;;;3.60;;
42514;SDS011;28144;49.920;18.730;2023-12-20T00:46:59;4.60;;;2.60;;
42514;SDS011;28144;49.920;18.730;2023-12-20T00:49:24;7.43;;;2.77;;
42514;SDS011;28144;49.920;18.730;2023-12-20T00:51:50;5.83;;;3.00;;
42514;SDS011;28144;49.920;18.730;2023-12-20T00:54:18;5.07;;;2.43;;
42514;SDS011;28144;49.920;18.730;2023-12-20T00:56:44;5.23;;;2.67;;
42514;SDS011;28144;49.920;18.730;2023-12-20T00:59:10;6.95;;;2.90;;
42514;SDS011;28144;49.920;18.730;2023-12-20T01:01:36;6.17;;;2.93;;
42514;SDS011;28144;49.920;18.730;2023-12-20T01:04:02;10.10;;;4.87;;
42514;SDS011;28144;49.920;18.730;2023-12-20T01:06:27;8.57;;;3.90;;
42514;SDS011;28144;49.920;18.730;2023-12-20T01:08:53;13.50;;;6.57;;
42514;SDS011;28144;49.920;18.730;2023-12-20T01:11:19;13.87;;;6.33;;
42514;SDS011;28144;49.920;18.730;2023-12-20T01:13:45;8.60;;;4.77;;
42514;SDS011;28144;49.920;18.730;2023-12-20T01:16:10;11.20;;;4.87;;
42514;SDS011;28144;49.920;18.730;2023-12-20T01:18:37;7.73;;;3.40;;
42514;SDS011;28144;49.920;18.730;2023-12-20T01:21:04;8.82;;;3.72;;
42514;SDS011;28144;49.920;18.730;2023-12-20T01:23:30;13.10;;;3.08;;
42514;SDS011;28144;49.920;18.730;2023-12-20T01:25:57;13.20;;;8.85;;
42514;SDS011;28144;49.920;18.730;2023-12-20T01:28:25;4.13;;;2.30;;
42514;SDS011;28144;49.920;18.730;2023-12-20T01:30:51;6.15;;;2.85;;
42514;SDS011;28144;49.920;18.730;2023-12-20T01:33:18;5.80;;;2.42;;
42514;SDS011;28144;49.920;18.730;2023-12-20T01:35:43;6.60;;;2.70;;
42514;SDS011;28144;49.920;18.730;2023-12-20T01:38:09;4.23;;;2.60;;
42514;SDS011;28144;49.920;18.730;2023-12-20T01:40:35;4.40;;;2.30;;
42514;SDS011;28144;49.920;18.730;2023-12-20T01:43:10;4.10;;;2.53;;
42514;SDS011;28144;49.920;18.730;2023-12-20T01:45:37;4.30;;;2.63;;
42514;SDS011;28144;49.920;18.730;2023-12-20T01:48:03;3.53;;;2.13;;
42514;SDS011;28144;49.920;18.730;2023-12-20T01:50:30;4.43;;;2.97;;
42514;SDS011;28144;49.920;18.730;2023-12-20T01:52:57;12.90;;;6.40;;
42514;SDS011;28144;49.920;18.730;2023-12-20T01:55:25;12.17;;;6.73;;
42514;SDS011;28144;49.920;18.730;2023-12-20T01:57:51;6.68;;;3.70;;
42514;SDS011;28144;49.920;18.730;2023-12-20T02:00:17;8.20;;;4.60;;
42514;SDS011;28144;49.920;18.730;2023-12-20T02:02:43;9.50;;;4.80;;
42514;SDS011;28144;49.920;18.730;2023-12-20T02:05:10;8.65;;;4.60;;
42514;SDS011;28144;49.920;18.730;2023-12-20T02:07:36;8.60;;;3.88;;
42514;SDS011;28144;49.920;18.730;2023-12-20T02:10:02;7.93;;;4.73;;
42514;SDS011;28144;49.920;18.730;2023-12-20T02:12:29;7.93;;;4.53;;
42514;SDS011;28144;49.920;18.730;2023-12-20T02:14:55;8.73;;;5.30;;
42514;SDS011;28144;49.920;18.730;2023-12-20T02:17:21;7.73;;;4.87;;
42514;SDS011;28144;49.920;18.730;2023-12-20T02:19:47;8.60;;;4.60;;
42514;SDS011;28144;49.920;18.730;2023-12-20T02:22:13;8.87;;;4.87;;
42514;SDS011;28144;49.920;18.730;2023-12-20T02:24:39;11.87;;;5.00;;
42514;SDS011;28144;49.920;18.730;2023-12-20T02:27:05;9.93;;;5.05;;
42514;SDS011;28144;49.920;18.730;2023-12-20T02:29:32;8.40;;;4.93;;
42514;SDS011;28144;49.920;18.730;2023-12-20T02:31:59;9.03;;;5.53;;
42514;SDS011;28144;49.920;18.730;2023-12-20T02:34:24;10.53;;;6.33;;
42514;SDS011;28144;49.920;18.730;2023-12-20T02:36:50;11.90;;;5.60;;
42514;SDS011;28144;49.920;18.730;2023-12-20T02:39:16;11.03;;;5.83;;
42514;SDS011;28144;49.920;18.730;2023-12-20T02:41:42;11.63;;;6.30;;
42514;SDS011;28144;49.920;18.730;2023-12-20T02:44:07;7.57;;;4.10;;
42514;SDS011;28144;49.920;18.730;2023-12-20T02:46:33;8.17;;;4.10;;
42514;SDS011;28144;49.920;18.730;2023-12-20T02:48:59;9.67;;;4.00;;
42514;SDS011;28144;49.920;18.730;2023-12-20T02:51:25;9.87;;;4.37;;
42514;SDS011;28144;49.920;18.730;2023-12-20T02:53:50;7.87;;;4.30;;
42514;SDS011;28144;49.920;18.730;2023-12-20T02:56:16;9.07;;;4.23;;
42514;SDS011;28144;49.920;18.730;2023-12-20T02:58:42;8.73;;;4.67;;
42514;SDS011;28144;49.920;18.730;2023-12-20T03:01:08;6.80;;;3.73;;
42514;SDS011;28144;49.920;18.730;2023-12-20T03:03:34;8.47;;;3.87;;
42514;SDS011;28144;49.920;18.730;2023-12-20T03:05:59;12.70;;;3.30;;
42514;SDS011;28144;49.920;18.730;2023-12-20T03:08:25;7.47;;;3.43;;
42514;SDS011;28144;49.920;18.730;2023-12-20T03:10:51;8.73;;;3.70;;
42514;SDS011;28144;49.920;18.730;2023-12-20T03:13:16;8.03;;;4.20;;
42514;SDS011;28144;49.920;18.730;2023-12-20T03:15:42;8.13;;;3.87;;
42514;SDS011;28144;49.920;18.730;2023-12-20T03:18:08;7.03;;;3.83;;
42514;SDS011;28144;49.920;18.730;2023-12-20T03:20:33;8.53;;;4.10;;
42514;SDS011;28144;49.920;18.730;2023-12-20T03:22:59;8.17;;;4.53;;
42514;SDS011;28144;49.920;18.730;2023-12-20T03:25:26;9.32;;;4.82;;
42514;SDS011;28144;49.920;18.730;2023-12-20T03:27:52;11.53;;;4.63;;
42514;SDS011;28144;49.920;18.730;2023-12-20T03:30:18;10.32;;;5.78;;
42514;SDS011;28144;49.920;18.730;2023-12-20T03:32:44;11.90;;;5.57;;
42514;SDS011;28144;49.920;18.730;2023-12-20T03:35:10;10.93;;;5.77;;
42514;SDS011;28144;49.920;18.730;2023-12-20T03:37:35;14.27;;;5.93;;
42514;SDS011;28144;49.920;18.730;2023-12-20T03:40:02;12.10;;;5.93;;
42514;SDS011;28144;49.920;18.730;2023-12-20T03:42:28;11.48;;;6.03;;
42514;SDS011;28144;49.920;18.730;2023-12-20T03:44:53;10.80;;;5.63;;
42514;SDS011;28144;49.920;18.730;2023-12-20T03:47:19;11.03;;;5.83;;
42514;SDS011;28144;49.920;18.730;2023-12-20T03:49:45;10.93;;;5.47;;
42514;SDS011;28144;49.920;18.730;2023-12-20T03:52:10;11.90;;;5.17;;
42514;SDS011;28144;49.920;18.730;2023-12-20T03:54:36;12.03;;;5.67;;
42514;SDS011;28144;49.920;18.730;2023-12-20T03:57:02;10.17;;;5.90;;
42514;SDS011;28144;49.920;18.730;2023-12-20T03:59:28;8.50;;;5.10;;
42514;SDS011;28144;49.920;18.730;2023-12-20T04:01:53;10.03;;;5.73;;
42514;SDS011;28144;49.920;18.730;2023-12-20T04:04:19;9.40;;;5.87;;
42514;SDS011;28144;49.920;18.730;2023-12-20T04:06:45;10.23;;;5.80;;
42514;SDS011;28144;49.920;18.730;2023-12-20T04:09:10;11.23;;;6.30;;
42514;SDS011;28144;49.920;18.730;2023-12-20T04:11:37;11.35;;;6.18;;
42514;SDS011;28144;49.920;18.730;2023-12-20T04:14:03;11.20;;;5.93;;
42514;SDS011;28144;49.920;18.730;2023-12-20T04:16:30;10.43;;;6.50;;
42514;SDS011;28144;49.920;18.730;2023-12-20T04:18:56;11.73;;;6.43;;
42514;SDS011;28144;49.920;18.730;2023-12-20T04:21:21;9.53;;;5.90;;
42514;SDS011;28144;49.920;18.730;2023-12-20T04:23:47;10.23;;;6.03;;
42514;SDS011;28144;49.920;18.730;2023-12-20T04:26:13;12.43;;;6.67;;
42514;SDS011;28144;49.920;18.730;2023-12-20T04:28:38;14.47;;;8.30;;
42514;SDS011;28144;49.920;18.730;2023-12-20T04:31:04;13.73;;;7.47;;
42514;SDS011;28144;49.920;18.730;2023-12-20T04:33:30;13.55;;;7.82;;
42514;SDS011;28144;49.920;18.730;2023-12-20T04:35:56;14.70;;;7.53;;
42514;SDS011;28144;49.920;18.730;2023-12-20T04:40:48;11.00;;;7.10;;
42514;SDS011;28144;49.920;18.730;2023-12-20T04:43:14;14.53;;;7.73;;
42514;SDS011;28144;49.920;18.730;2023-12-20T04:45:40;12.70;;;6.23;;
42514;SDS011;28144;49.920;18.730;2023-12-20T04:48:06;14.53;;;6.83;;
42514;SDS011;28144;49.920;18.730;2023-12-20T04:50:31;10.73;;;6.10;;
42514;SDS011;28144;49.920;18.730;2023-12-20T04:52:57;10.60;;;5.93;;
42514;SDS011;28144;49.920;18.730;2023-12-20T04:55:23;10.50;;;5.83;;
42514;SDS011;28144;49.920;18.730;2023-12-20T04:57:48;10.67;;;6.13;;
42514;SDS011;28144;49.920;18.730;2023-12-20T05:00:14;10.27;;;5.87;;
42514;SDS011;28144;49.920;18.730;2023-12-20T05:02:41;13.48;;;6.82;;
42514;SDS011;28144;49.920;18.730;2023-12-20T05:05:06;13.23;;;5.73;;
42514;SDS011;28144;49.920;18.730;2023-12-20T05:07:33;10.68;;;6.35;;
42514;SDS011;28144;49.920;18.730;2023-12-20T05:09:59;10.43;;;5.20;;
42514;SDS011;28144;49.920;18.730;2023-12-20T05:12:25;13.95;;;6.40;;
42514;SDS011;28144;49.920;18.730;2023-12-20T05:14:51;12.73;;;6.83;;
42514;SDS011;28144;49.920;18.730;2023-12-20T05:19:43;11.20;;;5.73;;
42514;SDS011;28144;49.920;18.730;2023-12-20T05:22:09;11.53;;;6.33;;
42514;SDS011;28144;49.920;18.730;2023-12-20T05:24:35;11.37;;;6.20;;
42514;SDS011;28144;49.920;18.730;2023-12-20T05:27:00;15.33;;;6.97;;
42514;SDS011;28144;49.920;18.730;2023-12-20T05:29:26;11.93;;;7.10;;
42514;SDS011;28144;49.920;18.730;2023-12-20T05:31:52;11.47;;;6.20;;
42514;SDS011;28144;49.920;18.730;2023-12-20T05:34:17;11.23;;;6.37;;
42514;SDS011;28144;49.920;18.730;2023-12-20T05:36:43;13.53;;;7.53;;
42514;SDS011;28144;49.920;18.730;2023-12-20T05:39:09;13.77;;;7.03;;
42514;SDS011;28144;49.920;18.730;2023-12-20T05:41:35;11.43;;;6.83;;
42514;SDS011;28144;49.920;18.730;2023-12-20T05:44:00;13.30;;;6.60;;
42514;SDS011;28144;49.920;18.730;2023-12-20T05:46:26;13.23;;;6.70;;
42514;SDS011;28144;49.920;18.730;2023-12-20T05:48:52;17.42;;;7.18;;
42514;SDS011;28144;49.920;18.730;2023-12-20T05:51:18;12.67;;;6.97;;
42514;SDS011;28144;49.920;18.730;2023-12-20T05:53:44;12.60;;;7.43;;
42514;SDS011;28144;49.920;18.730;2023-12-20T05:56:10;13.00;;;7.60;;
42514;SDS011;28144;49.920;18.730;2023-12-20T05:58:36;12.38;;;6.90;;
42514;SDS011;28144;49.920;18.730;2023-12-20T06:01:05;13.20;;;8.70;;
42514;SDS011;28144;49.920;18.730;2023-12-20T06:03:31;16.13;;;9.17;;
42514;SDS011;28144;49.920;18.730;2023-12-20T06:05:57;13.32;;;8.50;;
42514;SDS011;28144;49.920;18.730;2023-12-20T06:08:22;14.77;;;8.73;;
42514;SDS011;28144;49.920;18.730;2023-12-20T06:10:48;13.67;;;8.57;;
42514;SDS011;28144;49.920;18.730;2023-12-20T06:13:14;15.83;;;8.73;;
42514;SDS011;28144;49.920;18.730;2023-12-20T06:15:39;12.10;;;6.70;;
42514;SDS011;28144;49.920;18.730;2023-12-20T06:18:05;15.80;;;8.70;;
42514;SDS011;28144;49.920;18.730;2023-12-20T06:20:32;12.73;;;7.60;;
42514;SDS011;28144;49.920;18.730;2023-12-20T06:22:58;13.80;;;8.38;;
42514;SDS011;28144;49.920;18.730;2023-12-20T06:25:24;15.85;;;9.20;;
42514;SDS011;28144;49.920;18.730;2023-12-20T06:27:50;18.45;;;8.50;;
42514;SDS011;28144;49.920;18.730;2023-12-20T06:30:16;17.40;;;9.20;;
42514;SDS011;28144;49.920;18.730;2023-12-20T06:32:41;17.13;;;10.33;;
42514;SDS011;28144;49.920;18.730;2023-12-20T06:35:11;16.97;;;9.77;;
42514;SDS011;28144;49.920;18.730;2023-12-20T06:37:36;17.70;;;10.83;;
42514;SDS011;28144;49.920;18.730;2023-12-20T06:40:02;16.98;;;10.13;;
42514;SDS011;28144;49.920;18.730;2023-12-20T06:42:28;18.83;;;10.83;;
42514;SDS011;28144;49.920;18.730;2023-12-20T06:44:54;19.90;;;11.00;;
42514;SDS011;28144;49.920;18.730;2023-12-20T06:47:19;18.27;;;10.47;;
42514;SDS011;28144;49.920;18.730;2023-12-20T06:49:45;19.10;;;11.68;;
42514;SDS011;28144;49.920;18.730;2023-12-20T06:52:11;17.43;;;10.93;;
42514;SDS011;28144;49.920;18.730;2023-12-20T06:54:37;17.57;;;11.10;;
42514;SDS011;28144;49.920;18.730;2023-12-20T06:57:02;21.77;;;12.23;;
42514;SDS011;28144;49.920;18.730;2023-12-20T06:59:30;17.27;;;10.13;;
42514;SDS011;28144;49.920;18.730;2023-12-20T07:01:55;22.47;;;11.90;;
42514;SDS011;28144;49.920;18.730;2023-12-20T07:04:21;18.17;;;10.27;;
42514;SDS011;28144;49.920;18.730;2023-12-20T07:06:47;18.83;;;10.63;;
42514;SDS011;28144;49.920;18.730;2023-12-20T07:09:14;22.00;;;11.95;;
42514;SDS011;28144;49.920;18.730;2023-12-20T07:11:40;16.50;;;10.07;;
42514;SDS011;28144;49.920;18.730;2023-12-20T07:14:06;20.43;;;11.10;;
42514;SDS011;28144;49.920;18.730;2023-12-20T07:16:34;20.33;;;11.93;;
42514;SDS011;28144;49.920;18.730;2023-12-20T07:19:00;24.58;;;13.68;;
42514;SDS011;28144;49.920;18.730;2023-12-20T07:21:25;24.00;;;12.47;;
42514;SDS011;28144;49.920;18.730;2023-12-20T07:23:51;25.67;;;12.47;;
42514;SDS011;28144;49.920;18.730;2023-12-20T07:26:17;20.73;;;12.23;;
42514;SDS011;28144;49.920;18.730;2023-12-20T07:28:43;23.53;;;13.97;;
42514;SDS011;28144;49.920;18.730;2023-12-20T07:31:08;20.73;;;13.93;;
42514;SDS011;28144;49.920;18.730;2023-12-20T07:33:34;23.67;;;13.43;;
42514;SDS011;28144;49.920;18.730;2023-12-20T07:36:00;26.83;;;15.70;;
42514;SDS011;28144;49.920;18.730;2023-12-20T07:38:26;23.17;;;15.05;;
42514;SDS011;28144;49.920;18.730;2023-12-20T07:40:52;28.77;;;14.93;;
42514;SDS011;28144;49.920;18.730;2023-12-20T07:43:17;26.30;;;14.67;;
42514;SDS011;28144;49.920;18.730;2023-12-20T07:45:43;27.70;;;16.37;;
42514;SDS011;28144;49.920;18.730;2023-12-20T07:48:09;22.63;;;14.43;;
42514;SDS011;28144;49.920;18.730;2023-12-20T07:50:34;25.47;;;14.43;;
42514;SDS011;28144;49.920;18.730;2023-12-20T07:53:00;30.77;;;14.57;;
42514;SDS011;28144;49.920;18.730;2023-12-20T07:55:27;25.23;;;14.77;;
42514;SDS011;28144;49.920;18.730;2023-12-20T07:57:53;26.33;;;14.57;;
42514;SDS011;28144;49.920;18.730;2023-12-20T08:00:18;24.47;;;14.43;;
42514;SDS011;28144;49.920;18.730;2023-12-20T08:02:44;26.67;;;15.65;;
42514;SDS011;28144;49.920;18.730;2023-12-20T08:05:10;21.17;;;13.23;;
42514;SDS011;28144;49.920;18.730;2023-12-20T08:07:36;21.07;;;14.17;;
42514;SDS011;28144;49.920;18.730;2023-12-20T08:10:02;22.97;;;13.17;;
42514;SDS011;28144;49.920;18.730;2023-12-20T08:12:28;21.98;;;13.18;;
42514;SDS011;28144;49.920;18.730;2023-12-20T08:14:54;19.00;;;12.60;;
42514;SDS011;28144;49.920;18.730;2023-12-20T08:17:20;28.15;;;13.02;;
42514;SDS011;28144;49.920;18.730;2023-12-20T08:19:45;26.10;;;12.87;;
42514;SDS011;28144;49.920;18.730;2023-12-20T08:22:11;20.27;;;13.07;;
42514;SDS011;28144;49.920;18.730;2023-12-20T08:24:37;24.17;;;12.83;;
42514;SDS011;28144;49.920;18.730;2023-12-20T08:27:05;29.17;;;12.97;;
42514;SDS011;28144;49.920;18.730;2023-12-20T08:29:30;22.27;;;12.93;;
42514;SDS011;28144;49.920;18.730;2023-12-20T08:31:56;19.93;;;11.83;;
42514;SDS011;28144;49.920;18.730;2023-12-20T08:34:22;20.43;;;11.43;;
42514;SDS011;28144;49.920;18.730;2023-12-20T08:36:50;15.88;;;10.35;;
42514;SDS011;28144;49.920;18.730;2023-12-20T08:39:16;18.17;;;10.03;;
42514;SDS011;28144;49.920;18.730;2023-12-20T08:41:42;18.97;;;9.27;;
42514;SDS011;28144;49.920;18.730;2023-12-20T08:44:08;18.73;;;9.63;;
42514;SDS011;28144;49.920;18.730;2023-12-20T08:46:34;16.23;;;9.60;;
42514;SDS011;28144;49.920;18.730;2023-12-20T08:49:00;12.23;;;8.03;;
42514;SDS011;28144;49.920;18.730;2023-12-20T08:51:26;12.35;;;7.97;;
42514;SDS011;28144;49.920;18.730;2023-12-20T08:53:52;11.77;;;7.07;;
42514;SDS011;28144;49.920;18.730;2023-12-20T08:56:18;10.87;;;7.17;;
42514;SDS011;28144;49.920;18.730;2023-12-20T08:58:45;13.70;;;6.70;;
42514;SDS011;28144;49.920;18.730;2023-12-20T09:01:11;11.02;;;6.45;;
42514;SDS011;28144;49.920;18.730;2023-12-20T09:09:44;11.20;;;5.87;;
42514;SDS011;28144;49.920;18.730;2023-12-20T09:12:10;10.90;;;6.95;;
42514;SDS011;28144;49.920;18.730;2023-12-20T09:14:35;10.13;;;6.23;;
42514;SDS011;28144;49.920;18.730;2023-12-20T09:17:01;11.67;;;6.73;;
42514;SDS011;28144;49.920;18.730;2023-12-20T09:21:55;12.63;;;7.35;;
42514;SDS011;28144;49.920;18.730;2023-12-20T09:24:20;14.53;;;7.43;;
42514;SDS011;28144;49.920;18.730;2023-12-20T09:26:46;22.43;;;10.87;;
42514;SDS011;28144;49.920;18.730;2023-12-20T09:29:12;15.93;;;8.67;;
42514;SDS011;28144;49.920;18.730;2023-12-20T09:31:41;13.37;;;7.60;;
42514;SDS011;28144;49.920;18.730;2023-12-20T09:34:09;11.60;;;7.07;;
42514;SDS011;28144;49.920;18.730;2023-12-20T09:36:34;16.57;;;8.73;;
42514;SDS011;28144;49.920;18.730;2023-12-20T09:39:01;13.48;;;8.15;;
42514;SDS011;28144;49.920;18.730;2023-12-20T09:41:28;15.75;;;8.45;;
42514;SDS011;28144;49.920;18.730;2023-12-20T09:43:57;14.00;;;9.67;;
42514;SDS011;28144;49.920;18.730;2023-12-20T09:46:27;13.20;;;7.73;;
42514;SDS011;28144;49.920;18.730;2023-12-20T09:52:53;11.63;;;5.63;;
42514;SDS011;28144;49.920;18.730;2023-12-20T09:55:19;8.85;;;5.47;;
42514;SDS011;28144;49.920;18.730;2023-12-20T09:57:46;10.05;;;6.20;;
42514;SDS011;28144;49.920;18.730;2023-12-20T10:00:13;13.73;;;5.82;;
42514;SDS011;28144;49.920;18.730;2023-12-20T10:02:45;10.68;;;6.22;;
42514;SDS011;28144;49.920;18.730;2023-12-20T10:05:16;8.80;;;4.60;;
42514;SDS011;28144;49.920;18.730;2023-12-20T10:07:48;11.63;;;5.93;;
42514;SDS011;28144;49.920;18.730;2023-12-20T10:10:14;9.97;;;5.73;;
42514;SDS011;28144;49.920;18.730;2023-12-20T10:12:40;10.23;;;5.60;;
42514;SDS011;28144;49.920;18.730;2023-12-20T10:15:06;8.77;;;5.37;;
42514;SDS011;28144;49.920;18.730;2023-12-20T10:17:31;8.53;;;5.40;;
42514;SDS011;28144;49.920;18.730;2023-12-20T10:19:59;8.60;;;5.88;;
42514;SDS011;28144;49.920;18.730;2023-12-20T10:22:25;9.00;;;5.47;;
42514;SDS011;28144;49.920;18.730;2023-12-20T10:24:50;10.93;;;6.13;;
42514;SDS011;28144;49.920;18.730;2023-12-20T10:27:16;7.50;;;5.63;;
42514;SDS011;28144;49.920;18.730;2023-12-20T10:29:44;12.77;;;6.37;;
42514;SDS011;28144;49.920;18.730;2023-12-20T10:34:49;10.33;;;6.43;;
42514;SDS011;28144;49.920;18.730;2023-12-20T10:37:18;9.70;;;6.50;;
42514;SDS011;28144;49.920;18.730;2023-12-20T10:39:44;10.10;;;6.47;;
42514;SDS011;28144;49.920;18.730;2023-12-20T10:42:21;12.48;;;7.05;;
42514;SDS011;28144;49.920;18.730;2023-12-20T10:44:52;11.30;;;6.80;;
42514;SDS011;28144;49.920;18.730;2023-12-20T10:47:21;9.97;;;7.23;;
42514;SDS011;28144;49.920;18.730;2023-12-20T10:49:47;10.75;;;6.72;;
42514;SDS011;28144;49.920;18.730;2023-12-20T10:52:13;10.68;;;6.75;;
42514;SDS011;28144;49.920;18.730;2023-12-20T10:54:40;11.10;;;6.70;;
42514;SDS011;28144;49.920;18.730;2023-12-20T10:59:33;10.20;;;7.15;;
42514;SDS011;28144;49.920;18.730;2023-12-20T11:01:59;10.00;;;5.20;;
42514;SDS011;28144;49.920;18.730;2023-12-20T11:04:28;12.30;;;7.85;;
42514;SDS011;28144;49.920;18.730;2023-12-20T11:07:01;11.73;;;7.33;;
42514;SDS011;28144;49.920;18.730;2023-12-20T11:09:38;13.43;;;8.13;;
42514;SDS011;28144;49.920;18.730;2023-12-20T11:12:10;12.87;;;7.83;;
42514;SDS011;28144;49.920;18.730;2023-12-20T11:17:09;14.30;;;7.33;;
42514;SDS011;28144;49.920;18.730;2023-12-20T11:22:21;13.07;;;7.90;;
42514;SDS011;28144;49.920;18.730;2023-12-20T11:24:51;12.90;;;8.47;;
42514;SDS011;28144;49.920;18.730;2023-12-20T11:27:18;10.65;;;5.95;;
42514;SDS011;28144;49.920;18.730;2023-12-20T11:29:51;13.70;;;8.43;;
42514;SDS011;28144;49.920;18.730;2023-12-20T11:34:53;12.90;;;8.70;;
42514;SDS011;28144;49.920;18.730;2023-12-20T11:37:19;10.30;;;7.40;;
42514;SDS011;28144;49.920;18.730;2023-12-20T11:39:54;11.50;;;7.90;;
42514;SDS011;28144;49.920;18.730;2023-12-20T11:42:21;12.93;;;8.23;;
42514;SDS011;28144;49.920;18.730;2023-12-20T11:44:47;13.20;;;8.57;;
42514;SDS011;28144;49.920;18.730;2023-12-20T11:47:14;12.43;;;7.03;;
42514;SDS011;28144;49.920;18.730;2023-12-20T11:49:41;13.97;;;7.43;;
42514;SDS011;28144;49.920;18.730;2023-12-20T11:52:07;16.90;;;8.93;;
42514;SDS011;28144;49.920;18.730;2023-12-20T11:54:32;11.73;;;7.13;;
42514;SDS011;28144;49.920;18.730;2023-12-20T11:56:58;14.57;;;7.47;;
42514;SDS011;28144;49.920;18.730;2023-12-20T11:59:24;12.90;;;8.00;;
42514;SDS011;28144;49.920;18.730;2023-12-20T12:01:50;11.30;;;7.27;;
42514;SDS011;28144;49.920;18.730;2023-12-20T12:04:16;13.63;;;8.30;;
42514;SDS011;28144;49.920;18.730;2023-12-20T12:06:43;12.10;;;7.68;;
42514;SDS011;28144;49.920;18.730;2023-12-20T12:09:10;10.10;;;6.87;;
42514;SDS011;28144;49.920;18.730;2023-12-20T12:11:35;12.70;;;7.67;;
42514;SDS011;28144;49.920;18.730;2023-12-20T12:14:01;11.33;;;6.87;;
42514;SDS011;28144;49.920;18.730;2023-12-20T12:16:27;9.10;;;6.17;;
42514;SDS011;28144;49.920;18.730;2023-12-20T12:18:56;10.57;;;6.73;;
42514;SDS011;28144;49.920;18.730;2023-12-20T12:21:23;9.93;;;6.73;;
42514;SDS011;28144;49.920;18.730;2023-12-20T12:23:49;13.57;;;7.50;;
42514;SDS011;28144;49.920;18.730;2023-12-20T12:26:14;10.73;;;6.23;;
42514;SDS011;28144;49.920;18.730;2023-12-20T12:28:40;10.87;;;6.63;;
42514;SDS011;28144;49.920;18.730;2023-12-20T12:31:12;11.32;;;6.57;;
42514;SDS011;28144;49.920;18.730;2023-12-20T12:33:40;12.67;;;6.70;;
42514;SDS011;28144;49.920;18.730;2023-12-20T12:36:06;7.57;;;4.68;;
42514;SDS011;28144;49.920;18.730;2023-12-20T12:38:33;8.68;;;5.50;;
42514;SDS011;28144;49.920;18.730;2023-12-20T12:40:59;9.30;;;6.40;;
42514;SDS011;28144;49.920;18.730;2023-12-20T12:43:25;6.90;;;5.15;;
42514;SDS011;28144;49.920;18.730;2023-12-20T12:45:51;8.53;;;5.60;;
42514;SDS011;28144;49.920;18.730;2023-12-20T12:48:17;9.47;;;5.27;;
42514;SDS011;28144;49.920;18.730;2023-12-20T12:50:43;9.20;;;5.87;;
42514;SDS011;28144;49.920;18.730;2023-12-20T12:53:09;7.27;;;5.27;;
42514;SDS011;28144;49.920;18.730;2023-12-20T12:55:34;10.17;;;5.30;;
42514;SDS011;28144;49.920;18.730;2023-12-20T12:58:01;7.00;;;4.55;;
42514;SDS011;28144;49.920;18.730;2023-12-20T13:00:27;7.63;;;5.20;;
42514;SDS011;28144;49.920;18.730;2023-12-20T13:02:53;6.87;;;4.37;;
42514;SDS011;28144;49.920;18.730;2023-12-20T13:05:18;9.07;;;5.30;;
42514;SDS011;28144;49.920;18.730;2023-12-20T13:07:44;9.13;;;5.70;;
42514;SDS011;28144;49.920;18.730;2023-12-20T13:10:13;9.33;;;5.20;;
42514;SDS011;28144;49.920;18.730;2023-12-20T13:12:42;8.90;;;4.83;;
42514;SDS011;28144;49.920;18.730;2023-12-20T13:15:07;11.53;;;5.93;;
42514;SDS011;28144;49.920;18.730;2023-12-20T13:17:34;8.30;;;5.13;;
42514;SDS011;28144;49.920;18.730;2023-12-20T13:20:00;8.50;;;5.10;;
42514;SDS011;28144;49.920;18.730;2023-12-20T13:22:26;11.37;;;5.77;;
42514;SDS011;28144;49.920;18.730;2023-12-20T13:24:51;7.67;;;5.00;;
42514;SDS011;28144;49.920;18.730;2023-12-20T13:27:17;9.63;;;6.37;;
42514;SDS011;28144;49.920;18.730;2023-12-20T13:29:43;11.63;;;5.30;;
42514;SDS011;28144;49.920;18.730;2023-12-20T13:32:08;7.37;;;4.43;;
42514;SDS011;28144;49.920;18.730;2023-12-20T13:34:34;10.80;;;5.37;;
42514;SDS011;28144;49.920;18.730;2023-12-20T13:37:00;9.77;;;6.03;;
42514;SDS011;28144;49.920;18.730;2023-12-20T13:39:25;8.53;;;4.87;;
42514;SDS011;28144;49.920;18.730;2023-12-20T13:41:51;10.80;;;5.67;;
42514;SDS011;28144;49.920;18.730;2023-12-20T13:44:17;8.40;;;5.33;;
42514;SDS011;28144;49.920;18.730;2023-12-20T13:46:43;10.05;;;4.35;;
42514;SDS011;28144;49.920;18.730;2023-12-20T13:49:10;9.93;;;5.40;;
42514;SDS011;28144;49.920;18.730;2023-12-20T13:51:37;11.53;;;5.67;;
42514;SDS011;28144;49.920;18.730;2023-12-20T13:54:03;10.70;;;5.37;;
42514;SDS011;28144;49.920;18.730;2023-12-20T13:56:29;10.80;;;5.53;;
42514;SDS011;28144;49.920;18.730;2023-12-20T13:58:55;8.70;;;5.23;;
42514;SDS011;28144;49.920;18.730;2023-12-20T14:01:21;8.53;;;5.60;;
42514;SDS011;28144;49.920;18.730;2023-12-20T14:03:46;11.00;;;5.73;;
42514;SDS011;28144;49.920;18.730;2023-12-20T14:06:12;9.37;;;5.47;;
42514;SDS011;28144;49.920;18.730;2023-12-20T14:08:40;11.20;;;5.90;;
42514;SDS011;28144;49.920;18.730;2023-12-20T14:13:32;10.93;;;6.47;;
42514;SDS011;28144;49.920;18.730;2023-12-20T14:15:58;10.10;;;5.63;;
42514;SDS011;28144;49.920;18.730;2023-12-20T14:18:25;14.50;;;7.40;;
42514;SDS011;28144;49.920;18.730;2023-12-20T14:20:51;8.33;;;5.50;;
42514;SDS011;28144;49.920;18.730;2023-12-20T14:23:17;11.60;;;6.57;;
42514;SDS011;28144;49.920;18.730;2023-12-20T14:25:42;11.10;;;6.53;;
42514;SDS011;28144;49.920;18.730;2023-12-20T14:28:08;9.93;;;5.23;;
42514;SDS011;28144;49.920;18.730;2023-12-20T14:30:35;11.40;;;6.60;;
42514;SDS011;28144;49.920;18.730;2023-12-20T14:33:03;10.40;;;6.63;;
42514;SDS011;28144;49.920;18.730;2023-12-20T14:35:29;10.88;;;6.47;;
42514;SDS011;28144;49.920;18.730;2023-12-20T14:37:55;12.70;;;7.50;;
42514;SDS011;28144;49.920;18.730;2023-12-20T14:40:21;11.23;;;7.03;;
42514;SDS011;28144;49.920;18.730;2023-12-20T14:42:46;14.27;;;7.10;;
42514;SDS011;28144;49.920;18.730;2023-12-20T14:45:12;15.32;;;8.10;;
42514;SDS011;28144;49.920;18.730;2023-12-20T14:47:39;13.52;;;8.48;;
42514;SDS011;28144;49.920;18.730;2023-12-20T14:50:05;19.37;;;9.47;;